Time;durP1;ratioP1;P1;durP2;ratioP2;P2;SDS_P1;SDS_P2;PMS_P1;PMS_P2;Temp;Humidity;BMP_temperature;BMP_pressure;BME280_temperature;BME280_humidity;BME280_pressure;Samples;Min_cycle;Max_cycle;Signal;HPM_P1;HPM_P2
2021/10/21 00:00:32;;;;;;;1.45;0.65;;;17.60;95.10;17.60;99133.00;;;;4914728;28;93915;-69
2021/10/21 00:02:58;;;;;;;1.13;0.77;;;17.60;95.10;17.50;99117.00;;;;4932532;28;123784;-69
2021/10/21 00:05:24;;;;;;;0.95;0.75;;;17.40;95.20;17.40;99106.00;;;;4932705;28;110655;-70
2021/10/21 00:07:49;;;;;;;0.98;0.80;;;17.40;95.00;17.40;99102.00;;;;4932591;28;104032;-70
2021/10/21 00:10:16;;;;;;;0.55;0.55;;;17.30;95.00;17.40;99086.00;;;;4913733;28;123204;-69
2021/10/21 00:12:42;;;;;;;1.80;0.75;;;17.30;95.20;17.40;99079.00;;;;4933635;28;93186;-69
2021/10/21 00:15:09;;;;;;;0.82;0.82;;;17.20;95.10;17.40;99073.00;;;;4933212;28;92851;-69
2021/10/21 00:17:36;;;;;;;0.80;0.77;;;17.20;94.60;17.40;99068.00;;;;4933855;28;92201;-69
2021/10/21 00:20:06;;;;;;;0.40;0.40;;;17.30;94.30;17.40;99062.00;;;;4932329;28;102574;-69
2021/10/21 00:22:32;;;;;;;0.60;0.43;;;17.30;94.10;17.50;99071.00;;;;4899380;28;94303;-69
2021/10/21 00:24:58;;;;;;;0.57;0.50;;;17.30;93.60;17.50;99082.00;;;;4935163;28;94698;-70
2021/10/21 00:27:23;;;;;;;0.68;0.60;;;17.40;93.10;17.60;99068.00;;;;4902188;28;93031;-69
2021/10/21 00:29:49;;;;;;;0.90;0.50;;;17.40;92.70;17.70;99065.00;;;;4935089;28;122505;-70
2021/10/21 00:32:15;;;;;;;0.55;0.30;;;17.50;92.30;17.70;99074.00;;;;4935799;28;120821;-69
2021/10/21 00:34:40;;;;;;;1.60;0.43;;;17.50;91.80;17.80;99075.00;;;;4935871;28;110626;-69
2021/10/21 00:37:06;;;;;;;0.68;0.50;;;17.60;91.50;17.80;99067.00;;;;4917437;28;107817;-69
2021/10/21 00:39:32;;;;;;;0.32;0.32;;;17.60;91.30;17.90;99057.00;;;;4934643;28;123119;-69
2021/10/21 00:41:57;;;;;;;0.77;0.60;;;17.70;91.10;17.90;99033.00;;;;4936504;28;109353;-69
2021/10/21 00:44:23;;;;;;;1.10;0.50;;;17.70;91.10;17.90;99043.00;;;;4916744;28;109946;-70
2021/10/21 00:46:49;;;;;;;0.98;0.60;;;17.70;90.90;17.80;99039.00;;;;4918152;28;92869;-70
2021/10/21 00:49:15;;;;;;;1.02;0.60;;;17.70;90.70;17.80;99041.00;;;;4917574;28;93732;-69
2021/10/21 00:51:41;;;;;;;0.45;0.45;;;17.70;90.60;17.90;99031.00;;;;4935142;28;109948;-69
2021/10/21 00:54:08;;;;;;;1.83;0.63;;;17.70;90.60;17.90;99030.00;;;;4936117;28;95253;-69
2021/10/21 00:56:35;;;;;;;0.30;0.30;;;17.70;90.60;17.90;99030.00;;;;4936588;28;92789;-70
2021/10/21 00:59:02;;;;;;;1.05;0.65;;;17.70;90.50;17.90;99036.00;;;;4917847;28;93071;-69
2021/10/21 01:01:32;;;;;;;0.40;0.40;;;17.70;90.50;17.80;99022.00;;;;4936324;28;94326;-69
2021/10/21 01:03:57;;;;;;;0.70;0.70;;;17.70;90.60;17.80;99026.00;;;;4936288;28;92748;-69
2021/10/21 01:06:23;;;;;;;0.85;0.60;;;17.70;90.70;17.80;99021.00;;;;4933474;28;107593;-69
2021/10/21 01:08:52;;;;;;;0.57;0.40;;;17.70;90.80;17.80;99025.00;;;;4935188;28;123048;-69
2021/10/21 01:11:18;;;;;;;0.50;0.50;;;17.60;90.70;17.70;99020.00;;;;4935505;28;93689;-70
2021/10/21 01:13:44;;;;;;;0.80;0.47;;;17.60;90.80;17.70;99006.00;;;;4936085;28;93841;-69
2021/10/21 01:16:13;;;;;;;0.30;0.30;;;17.60;90.60;17.70;98991.00;;;;4935724;28;93008;-69
2021/10/21 01:18:41;;;;;;;0.50;0.40;;;17.60;90.50;17.70;98969.00;;;;4935312;28;94255;-69
2021/10/21 01:21:09;;;;;;;1.35;0.30;;;17.60;90.50;17.70;98992.00;;;;4935643;28;94221;-69
2021/10/21 01:23:36;;;;;;;0.32;0.30;;;17.50;90.50;17.70;98977.00;;;;4936108;28;92908;-70
2021/10/21 01:26:05;;;;;;;0.30;0.25;;;17.60;90.50;17.70;98982.00;;;;4935151;28;92791;-69
2021/10/21 01:28:31;;;;;;;1.67;0.68;;;17.60;90.50;17.70;98989.00;;;;4934373;28;110242;-70
2021/10/21 01:30:57;;;;;;;0.93;0.60;;;17.60;90.50;17.80;98985.00;;;;4935647;28;122043;-70
2021/10/21 01:33:22;;;;;;;0.30;0.30;;;17.50;90.90;17.70;98985.00;;;;4935364;28;111090;-70
2021/10/21 01:35:48;;;;;;;0.32;0.30;;;17.60;91.30;17.60;98978.00;;;;4916618;28;107351;-69
2021/10/21 01:38:14;;;;;;;0.40;0.40;;;17.60;91.70;17.70;98983.00;;;;4933989;28;124085;-70
2021/10/21 01:40:39;;;;;;;0.68;0.50;;;17.50;92.00;17.60;98981.00;;;;4934913;28;115882;-70
2021/10/21 01:43:05;;;;;;;0.40;0.40;;;17.50;92.70;17.60;98970.00;;;;4916940;28;94081;-69
2021/10/21 01:45:32;;;;;;;0.32;0.32;;;17.50;93.10;17.40;98964.00;;;;4935554;28;93751;-70
2021/10/21 01:48:01;;;;;;;0.82;0.35;;;17.40;93.60;17.30;98964.00;;;;4934983;28;93022;-68
2021/10/21 01:50:29;;;;;;;0.65;0.32;;;17.30;94.20;17.20;98951.00;;;;4917216;28;93276;-69
2021/10/21 01:52:55;;;;;;;0.30;0.30;;;17.20;95.00;17.20;98951.00;;;;4935457;28;92767;-68
2021/10/21 01:55:21;;;;;;;0.38;0.35;;;17.10;95.10;17.20;98950.00;;;;4935875;28;92288;-69
2021/10/21 01:57:48;;;;;;;0.40;0.30;;;17.10;95.30;17.20;98944.00;;;;4935539;28;93464;-69
2021/10/21 02:00:20;;;;;;;0.77;0.63;;;17.10;95.40;17.20;98947.00;;;;4916409;28;93106;-70
2021/10/21 02:02:46;;;;;;;0.50;0.25;;;17.10;95.40;17.20;98943.00;;;;4917116;28;93795;-69
2021/10/21 02:05:14;;;;;;;0.43;0.43;;;17.10;95.50;17.30;98946.00;;;;4916738;28;92911;-68
2021/10/21 02:07:41;;;;;;;0.90;0.55;;;17.10;95.50;17.30;98941.00;;;;4919136;28;93304;-68
2021/10/21 02:10:11;;;;;;;0.35;0.30;;;17.20;95.70;17.30;98939.00;;;;4934648;28;92816;-70
2021/10/21 02:12:37;;;;;;;0.32;0.32;;;17.20;95.50;17.40;98934.00;;;;4935503;28;92612;-69
2021/10/21 02:15:05;;;;;;;0.30;0.30;;;17.20;95.50;17.40;98925.00;;;;4933610;28;109255;-69
2021/10/21 02:17:30;;;;;;;1.27;0.20;;;17.20;95.30;17.50;98929.00;;;;4934787;28;93976;-70
2021/10/21 02:19:56;;;;;;;0.35;0.35;;;17.30;95.10;17.60;98924.00;;;;4899225;28;120230;-70
2021/10/21 02:22:22;;;;;;;0.50;0.40;;;17.40;95.10;17.60;98924.00;;;;4933782;28;110034;-70
2021/10/21 02:24:47;;;;;;;0.75;0.40;;;17.40;95.40;17.50;98940.00;;;;4933555;28;107584;-69
2021/10/21 02:27:13;;;;;;;1.17;0.43;;;17.40;96.20;17.30;98929.00;;;;4911433;28;124750;-69
2021/10/21 02:29:39;;;;;;;0.98;0.47;;;17.30;97.00;17.20;98908.00;;;;4914021;28;121957;-69
2021/10/21 02:32:06;;;;;;;0.35;0.30;;;17.20;98.20;17.10;98901.00;;;;4915975;28;92778;-69
2021/10/21 02:34:31;;;;;;;0.40;0.40;;;17.10;98.90;17.00;98899.00;;;;4913037;28;92954;-69
2021/10/21 02:36:57;;;;;;;0.40;0.40;;;16.90;99.80;16.90;98881.00;;;;4914067;28;123583;-68
2021/10/21 02:39:23;;;;;;;0.38;0.38;;;16.80;99.90;16.80;98874.00;;;;4915049;28;93277;-69
2021/10/21 02:41:49;;;;;;;0.40;0.40;;;16.80;99.90;16.80;98883.00;;;;4915355;28;92797;-69
2021/10/21 02:44:15;;;;;;;3.55;0.60;;;16.70;99.90;16.70;98858.00;;;;4915983;28;92422;-69
2021/10/21 02:46:41;;;;;;;1.08;0.52;;;16.60;99.90;16.60;98849.00;;;;4914176;28;93955;-69
2021/10/21 02:49:07;;;;;;;0.82;0.52;;;16.50;99.90;16.60;98837.00;;;;4914074;28;123093;-69
2021/10/21 02:51:32;;;;;;;4.85;0.85;;;16.50;99.90;16.40;98793.00;;;;4913422;28;109968;-69
2021/10/21 02:53:58;;;;;;;0.65;0.65;;;16.30;99.90;16.30;98755.00;;;;4915079;28;92769;-68
2021/10/21 02:56:24;;;;;;;0.50;0.47;;;16.20;99.90;16.10;98715.00;;;;4911855;28;122820;-66
2021/10/21 02:58:49;;;;;;;0.68;0.52;;;16.10;99.90;15.90;98687.00;;;;4914045;28;121295;-66
2021/10/21 03:01:16;;;;;;;0.63;0.55;;;15.90;99.90;15.90;98657.00;;;;4914199;28;110564;-67
2021/10/21 03:03:41;;;;;;;0.38;0.38;;;15.90;99.90;15.90;98637.00;;;;4914299;28;106114;-67
2021/10/21 03:06:07;;;;;;;0.70;0.50;;;15.80;99.90;15.90;98621.00;;;;4913687;28;123336;-67
2021/10/21 03:08:33;;;;;;;0.35;0.35;;;15.80;99.90;15.90;98652.00;;;;4914137;28;121789;-67
2021/10/21 03:10:58;;;;;;;0.63;0.55;;;15.80;99.90;15.90;98695.00;;;;4913881;28;110386;-68
2021/10/21 03:13:24;;;;;;;0.50;0.45;;;15.80;99.90;16.00;98660.00;;;;4913956;28;102593;-67
2021/10/21 03:15:49;;;;;;;0.82;0.50;;;15.80;99.90;16.00;98623.00;;;;4913000;28;123721;-67
2021/10/21 03:18:15;;;;;;;0.45;0.45;;;15.90;99.90;16.00;98627.00;;;;4913518;28;123355;-66
2021/10/21 03:20:41;;;;;;;0.90;0.60;;;15.90;99.90;16.10;98660.00;;;;4914064;28;92836;-66
2021/10/21 03:23:07;;;;;;;0.43;0.43;;;16.00;99.90;16.10;98642.00;;;;4914546;28;93002;-67
2021/10/21 03:25:33;;;;;;;0.57;0.57;;;16.00;99.90;16.10;98637.00;;;;4914896;28;93409;-67
2021/10/21 03:27:58;;;;;;;0.15;0.15;;;16.00;99.90;16.20;98624.00;;;;4925116;28;121919;-67
2021/10/21 03:30:24;;;;;;;0.50;0.38;;;16.10;99.90;16.20;98597.00;;;;4933361;28;92848;-67
2021/10/21 03:32:50;;;;;;;0.30;0.30;;;16.10;99.90;16.30;98599.00;;;;4916720;28;91990;-68
2021/10/21 03:35:16;;;;;;;0.20;0.20;;;16.10;99.90;16.40;98607.00;;;;4932473;28;119350;-67
2021/10/21 03:37:42;;;;;;;0.40;0.30;;;16.20;99.90;16.40;98596.00;;;;4932733;28;106731;-67
2021/10/21 03:40:11;;;;;;;0.35;0.32;;;16.20;99.90;16.40;98622.00;;;;4932604;28;93761;-68
2021/10/21 03:42:38;;;;;;;0.40;0.35;;;16.30;99.90;16.50;98649.00;;;;4933797;28;92792;-69
2021/10/21 03:45:05;;;;;;;0.32;0.30;;;16.30;99.90;16.60;98614.00;;;;4915349;28;93440;-67
2021/10/21 03:47:31;;;;;;;0.95;0.65;;;16.40;99.90;16.60;98617.00;;;;4914884;28;94020;-68
2021/10/21 03:49:57;;;;;;;4.90;0.70;;;16.40;99.90;16.60;98612.00;;;;4915154;28;93057;-67
2021/10/21 03:52:22;;;;;;;0.35;0.30;;;16.50;99.90;16.70;98613.00;;;;4914406;28;108405;-68
2021/10/21 03:54:50;;;;;;;0.22;0.20;;;16.60;99.90;16.80;98614.00;;;;4914446;28;122954;-68
2021/10/21 03:57:15;;;;;;;0.50;0.22;;;16.60;99.90;16.80;98590.00;;;;4914752;28;92388;-68
2021/10/21 03:59:41;;;;;;;0.30;0.30;;;16.60;99.90;16.80;98595.00;;;;4933627;28;92969;-68
2021/10/21 04:02:07;;;;;;;0.10;0.10;;;16.70;99.90;16.80;98585.00;;;;4933850;28;92950;-68
2021/10/21 04:04:33;;;;;;;0.30;0.30;;;16.70;99.90;16.80;98594.00;;;;4932422;28;94649;-68
2021/10/21 04:06:59;;;;;;;0.50;0.50;;;16.70;99.90;16.80;98554.00;;;;4914133;28;122612;-68
2021/10/21 04:09:24;;;;;;;0.10;0.10;;;16.70;99.90;16.80;98539.00;;;;4933031;28;92630;-68
2021/10/21 04:11:50;;;;;;;0.50;0.22;;;16.70;99.90;16.80;98548.00;;;;4931801;28;109911;-68
2021/10/21 04:14:16;;;;;;;0.88;0.32;;;16.60;99.90;16.80;98549.00;;;;4932917;28;111871;-68
2021/10/21 04:16:42;;;;;;;0.10;0.10;;;16.70;99.90;16.80;98531.00;;;;4931658;28;122774;-68
2021/10/21 04:19:08;;;;;;;0.43;0.30;;;16.60;99.90;16.80;98534.00;;;;4933145;28;92905;-69
2021/10/21 04:21:34;;;;;;;0.90;0.40;;;16.60;99.90;16.80;98534.00;;;;4932876;28;92267;-69
2021/10/21 04:24:00;;;;;;;0.10;0.10;;;16.60;99.90;16.80;98552.00;;;;4933029;28;101335;-69
2021/10/21 04:26:25;;;;;;;0.20;0.20;;;16.60;99.90;16.80;98529.00;;;;4932107;28;122242;-69
2021/10/21 04:28:51;;;;;;;0.25;0.20;;;16.60;99.90;16.70;98515.00;;;;4931845;28;110386;-69
2021/10/21 04:31:17;;;;;;;0.20;0.20;;;16.60;99.90;16.70;98520.00;;;;4932592;28;101147;-70
2021/10/21 04:33:43;;;;;;;0.30;0.30;;;16.60;99.90;16.70;98492.00;;;;4932930;28;93155;-69
2021/10/21 04:36:09;;;;;;;0.22;0.22;;;16.60;99.90;16.70;98503.00;;;;4912007;28;121920;-69
2021/10/21 04:38:34;;;;;;;0.60;0.30;;;16.60;99.90;16.70;98477.00;;;;4929881;28;95631;-69
2021/10/21 04:41:00;;;;;;;0.80;0.40;;;16.60;99.90;16.70;98475.00;;;;4930065;28;92555;-69
2021/10/21 04:43:26;;;;;;;0.45;0.30;;;16.70;99.90;16.70;98489.00;;;;4929141;28;123541;-68
2021/10/21 04:45:52;;;;;;;0.30;0.30;;;16.60;99.90;16.70;98478.00;;;;4930053;28;93582;-69
2021/10/21 04:48:18;;;;;;;0.85;0.65;;;16.60;99.90;16.70;98467.00;;;;4929442;28;110152;-69
2021/10/21 04:50:44;;;;;;;0.68;0.55;;;16.60;99.90;16.70;98468.00;;;;4917909;28;109392;-69
2021/10/21 04:53:10;;;;;;;0.60;0.30;;;16.60;99.90;16.70;98471.00;;;;4911746;28;94073;-70
2021/10/21 04:55:36;;;;;;;0.40;0.40;;;16.60;99.90;16.70;98464.00;;;;4918752;28;94015;-69
2021/10/21 04:58:03;;;;;;;0.50;0.50;;;16.60;99.90;16.70;98448.00;;;;4929346;28;92863;-69
2021/10/21 05:00:31;;;;;;;0.55;0.55;;;16.60;99.90;16.70;98455.00;;;;4910971;28;93049;-69
2021/10/21 05:02:57;;;;;;;0.75;0.68;;;16.60;99.90;16.80;98452.00;;;;4892207;28;94167;-69
2021/10/21 05:05:23;;;;;;;0.68;0.43;;;16.60;99.90;16.80;98446.00;;;;4921810;28;92934;-69
2021/10/21 05:07:49;;;;;;;0.32;0.32;;;16.60;99.90;16.80;98438.00;;;;4933705;28;93571;-69
2021/10/21 05:10:15;;;;;;;1.13;0.50;;;16.70;99.90;16.90;98429.00;;;;4936170;28;92579;-69
2021/10/21 05:12:40;;;;;;;0.22;0.20;;;16.70;99.90;16.90;98416.00;;;;4936147;28;93149;-68
2021/10/21 05:15:07;;;;;;;0.52;0.45;;;16.80;99.90;17.00;98422.00;;;;4938015;28;93708;-69
2021/10/21 05:17:33;;;;;;;0.93;0.40;;;16.80;99.90;17.00;98423.00;;;;4918875;28;93789;-69
2021/10/21 05:19:59;;;;;;;1.67;0.68;;;16.80;99.90;17.10;98420.00;;;;4937878;28;108917;-69
2021/10/21 05:22:25;;;;;;;1.98;0.40;;;16.90;99.90;17.20;98411.00;;;;4935391;28;120458;-69
2021/10/21 05:24:51;;;;;;;0.35;0.25;;;17.00;99.50;17.20;98407.00;;;;4934067;28;122538;-68
2021/10/21 05:27:17;;;;;;;0.20;0.20;;;17.10;98.60;17.30;98418.00;;;;4934950;28;106594;-69
2021/10/21 05:29:42;;;;;;;0.38;0.30;;;17.20;98.20;17.40;98407.00;;;;4935029;28;102051;-68
2021/10/21 05:32:08;;;;;;;0.55;0.47;;;17.20;97.50;17.50;98405.00;;;;4933764;28;122461;-69
2021/10/21 05:34:35;;;;;;;0.10;0.10;;;17.30;97.80;17.30;98402.00;;;;4934835;28;95545;-68
2021/10/21 05:37:02;;;;;;;0.43;0.40;;;17.20;98.40;17.10;98397.00;;;;4935786;28;93067;-68
2021/10/21 05:39:32;;;;;;;0.45;0.45;;;17.00;98.80;17.00;98386.00;;;;4935194;28;92838;-68
2021/10/21 05:41:58;;;;;;;1.73;0.45;;;17.00;99.20;16.90;98379.00;;;;4934580;28;93727;-69
2021/10/21 05:44:25;;;;;;;0.35;0.30;;;16.80;99.40;16.90;98377.00;;;;4935088;28;93938;-68
2021/10/21 05:46:51;;;;;;;0.93;0.25;;;16.80;99.60;16.90;98367.00;;;;4934764;28;98914;-68
2021/10/21 05:49:17;;;;;;;0.30;0.30;;;16.80;99.20;17.00;98347.00;;;;4936038;28;92901;-70
2021/10/21 05:51:43;;;;;;;0.10;0.10;;;16.90;98.70;17.10;98353.00;;;;4934874;28;93329;-68
2021/10/21 05:54:09;;;;;;;0.52;0.40;;;16.90;98.50;17.20;98348.00;;;;4934493;28;109564;-68
2021/10/21 05:56:35;;;;;;;0.25;0.25;;;17.00;97.50;17.30;98339.00;;;;4935087;28;92695;-68
2021/10/21 05:59:01;;;;;;;1.25;0.85;;;17.10;97.20;17.40;98330.00;;;;4935635;28;92057;-69
2021/10/21 06:01:27;;;;;;;0.40;0.40;;;17.20;96.50;17.50;98321.00;;;;4934272;28;120815;-68
2021/10/21 06:03:52;;;;;;;0.77;0.40;;;17.40;95.80;17.60;98333.00;;;;4915501;28;122308;-70
2021/10/21 06:06:18;;;;;;;0.50;0.50;;;17.40;95.70;17.70;98318.00;;;;4934253;28;95637;-68
2021/10/21 06:08:46;;;;;;;0.63;0.60;;;17.50;95.40;17.70;98344.00;;;;4934294;28;106234;-68
2021/10/21 06:11:13;;;;;;;0.70;0.70;;;17.50;95.30;17.70;98349.00;;;;4934021;28;93027;-68
2021/10/21 06:13:39;;;;;;;0.40;0.35;;;17.60;95.30;17.80;98347.00;;;;4900501;28;94728;-68
2021/10/21 06:16:07;;;;;;;0.32;0.32;;;17.60;95.10;17.90;98364.00;;;;4934508;28;92927;-68
2021/10/21 06:18:34;;;;;;;0.55;0.47;;;17.70;94.70;17.90;98357.00;;;;4935151;28;92774;-69
2021/10/21 06:21:01;;;;;;;1.30;0.47;;;17.70;94.20;18.00;98354.00;;;;4933414;28;92818;-68
2021/10/21 06:23:28;;;;;;;0.77;0.47;;;17.80;93.30;18.10;98390.00;;;;4934625;28;93852;-68
2021/10/21 06:25:54;;;;;;;0.68;0.52;;;18.00;92.70;18.20;98377.00;;;;4915524;28;109626;-70
2021/10/21 06:28:20;;;;;;;4.88;0.47;;;18.00;91.50;18.20;98357.00;;;;4933523;28;92602;-69
2021/10/21 06:30:47;;;;;;;2.78;0.40;;;18.00;91.10;18.00;98344.00;;;;4915509;28;95479;-69
2021/10/21 06:33:14;;;;;;;0.55;0.30;;;17.90;90.70;17.70;98395.00;;;;4934203;28;94536;-70
2021/10/21 06:35:46;;;;;;;2.17;0.35;;;17.60;91.20;17.30;98370.00;;;;4934822;28;92880;-69
2021/10/21 06:38:15;;;;;;;3.78;0.30;;;17.30;91.60;16.70;98309.00;;;;4934657;28;93203;-70
2021/10/21 06:40:41;;;;;;;0.30;0.30;;;16.90;92.60;16.50;98354.00;;;;4933589;28;122036;-70
2021/10/21 06:43:07;;;;;;;1.38;0.20;;;16.60;93.50;16.50;98387.00;;;;4933710;28;112189;-70
2021/10/21 06:45:33;;;;;;;7.13;0.55;;;16.40;92.80;16.50;98396.00;;;;4934973;28;93125;-70
2021/10/21 06:48:00;;;;;;;1.75;0.52;;;16.50;92.10;16.80;98374.00;;;;4934963;28;92125;-70
2021/10/21 06:50:26;;;;;;;2.30;0.70;;;16.60;89.40;17.00;98363.00;;;;4933974;28;92806;-69
2021/10/21 06:52:51;;;;;;;0.20;0.20;;;16.80;87.30;17.30;98370.00;;;;4932994;28;123295;-68
2021/10/21 06:55:17;;;;;;;2.10;0.43;;;17.00;84.40;17.50;98359.00;;;;4932917;28;109668;-70
2021/10/21 06:57:58;;;;;;;0.35;0.30;;;17.20;80.40;17.60;98360.00;;;;4934397;28;92774;-68
2021/10/21 07:00:26;;;;;;;0.30;0.10;;;17.40;79.10;17.60;98379.00;;;;4916686;28;92904;-67
2021/10/21 07:02:52;;;;;;;0.10;0.10;;;17.40;77.40;17.70;98372.00;;;;4896575;28;95439;-68
2021/10/21 07:05:22;;;;;;;0.28;0.22;;;17.50;75.30;17.80;98378.00;;;;4913948;28;109795;-67
2021/10/21 07:07:48;;;;;;;0.73;0.35;;;17.60;73.10;17.80;98392.00;;;;4933815;28;92817;-68
2021/10/21 07:10:14;;;;;;;1.52;0.15;;;17.60;72.60;17.80;98387.00;;;;4932397;28;123697;-68
2021/10/21 07:12:42;;;;;;;0.73;0.20;;;17.60;69.60;17.80;98407.00;;;;4934578;28;93662;-68
2021/10/21 07:15:09;;;;;;;0.25;0.25;;;17.60;69.70;17.80;98395.00;;;;4933941;28;93297;-68
2021/10/21 07:17:36;;;;;;;0.52;0.38;;;17.70;69.50;17.80;98408.00;;;;4934457;28;92984;-67
2021/10/21 07:20:03;;;;;;;0.20;0.20;;;17.70;68.60;17.80;98411.00;;;;4932722;28;94777;-68
2021/10/21 07:22:29;;;;;;;5.72;0.50;;;17.70;68.50;17.80;98416.00;;;;4932950;28;102790;-68
2021/10/21 07:24:55;;;;;;;0.20;0.20;;;17.70;69.30;17.80;98428.00;;;;4933157;28;106225;-69
2021/10/21 07:27:20;;;;;;;0.20;0.20;;;17.70;69.90;17.80;98434.00;;;;4915534;28;106514;-67
2021/10/21 07:29:47;;;;;;;1.85;0.40;;;17.70;69.20;17.80;98378.00;;;;4932559;28;110785;-70
2021/10/21 07:32:13;;;;;;;0.55;0.38;;;17.70;69.00;17.80;98428.00;;;;4933599;28;100446;-68
2021/10/21 07:34:41;;;;;;;1.20;0.30;;;17.70;68.10;17.80;98428.00;;;;4932675;28;108964;-69
2021/10/21 07:37:07;;;;;;;3.28;0.73;;;17.60;68.00;17.80;98450.00;;;;4916633;28;92421;-67
2021/10/21 07:39:33;;;;;;;4.28;0.30;;;17.60;67.90;17.70;98433.00;;;;4932855;28;93891;-68
2021/10/21 07:42:01;;;;;;;0.57;0.50;;;17.60;68.20;17.70;98475.00;;;;4932985;28;123004;-68
2021/10/21 07:44:32;;;;;;;0.20;0.15;;;17.60;68.00;17.70;98458.00;;;;4932776;28;93721;-68
2021/10/21 07:46:59;;;;;;;0.70;0.35;;;17.60;68.80;17.60;98456.00;;;;4933557;28;96706;-68
2021/10/21 07:49:25;;;;;;;5.15;0.75;;;17.50;69.50;17.60;98475.00;;;;4933486;28;94289;-68
2021/10/21 07:51:51;;;;;;;0.85;0.65;;;17.50;70.20;17.50;98473.00;;;;4933095;28;93315;-69
2021/10/21 07:54:17;;;;;;;2.63;0.43;;;17.40;70.90;17.40;98493.00;;;;4933254;28;92969;-68
2021/10/21 07:56:43;;;;;;;0.98;0.30;;;17.30;71.10;17.30;98445.00;;;;4932220;28;109401;-68
2021/10/21 07:59:08;;;;;;;3.78;0.68;;;17.30;70.00;17.20;98467.00;;;;4913615;28;122388;-68
2021/10/21 08:01:34;;;;;;;0.43;0.20;;;17.10;70.00;17.00;98456.00;;;;4932005;28;122591;-68
2021/10/21 08:04:00;;;;;;;2.30;0.45;;;17.00;70.20;16.90;98486.00;;;;4933156;28;92796;-68
2021/10/21 08:06:28;;;;;;;0.30;0.30;;;16.90;70.40;16.90;98458.00;;;;4933557;28;92832;-68
2021/10/21 08:08:56;;;;;;;0.88;0.30;;;16.90;69.00;16.80;98488.00;;;;4932329;28;94444;-68
2021/10/21 08:11:22;;;;;;;1.20;0.68;;;16.70;68.80;16.80;98484.00;;;;4932440;28;94087;-68
2021/10/21 08:13:47;;;;;;;1.13;0.30;;;16.70;68.00;16.70;98470.00;;;;4932406;28;110265;-68
2021/10/21 08:16:13;;;;;;;2.03;0.52;;;16.60;67.20;16.70;98499.00;;;;4932294;28;107879;-69
2021/10/21 08:18:39;;;;;;;4.45;0.45;;;16.60;66.40;16.90;98501.00;;;;4931948;28;121666;-69
2021/10/21 08:21:04;;;;;;;14.85;0.88;;;16.70;65.10;17.20;98501.00;;;;4898091;28;105126;-69
2021/10/21 08:23:30;;;;;;;4.63;0.55;;;17.00;63.30;17.30;98490.00;;;;4915787;28;93146;-70
2021/10/21 08:25:56;;;;;;;1.25;0.30;;;17.10;61.30;17.40;98483.00;;;;4933110;28;92083;-68
2021/10/21 08:28:22;;;;;;;0.22;0.22;;;17.20;59.90;17.40;98474.00;;;;4931385;28;120964;-68
2021/10/21 08:30:47;;;;;;;0.85;0.35;;;17.30;59.70;17.50;98477.00;;;;4932081;28;122174;-68
2021/10/21 08:33:15;;;;;;;3.15;0.70;;;17.30;60.40;17.50;98457.00;;;;4932069;28;109643;-68
2021/10/21 08:35:41;;;;;;;7.22;0.70;;;17.30;60.50;17.50;98475.00;;;;4913225;28;94239;-68
2021/10/21 08:38:07;;;;;;;0.52;0.40;;;17.40;60.70;17.50;98449.00;;;;4913195;28;93709;-68
2021/10/21 08:40:35;;;;;;;2.30;0.52;;;17.40;61.50;17.50;98462.00;;;;4914017;28;93020;-68
2021/10/21 08:43:05;;;;;;;0.55;0.50;;;17.40;60.80;17.70;98471.00;;;;4913964;28;92834;-67
2021/10/21 08:45:32;;;;;;;6.05;0.52;;;17.50;60.10;17.80;98466.00;;;;4898805;28;92730;-67
2021/10/21 08:48:05;;;;;;;1.35;0.55;;;17.60;59.50;17.90;98456.00;;;;4898744;28;92871;-67
2021/10/21 08:50:35;;;;;;;0.28;0.28;;;17.70;58.80;17.90;98452.00;;;;4899086;28;92638;-67
2021/10/21 08:53:06;;;;;;;0.40;0.28;;;17.80;58.50;17.90;98435.00;;;;4917742;28;92958;-68
2021/10/21 08:55:33;;;;;;;2.95;0.75;;;17.70;57.60;17.90;98454.00;;;;4917169;28;92883;-67
2021/10/21 08:58:01;;;;;;;0.98;0.50;;;17.70;57.30;17.90;98451.00;;;;4914022;28;94899;-67
2021/10/21 09:00:27;;;;;;;13.25;0.68;;;17.70;57.00;18.00;98444.00;;;;4879280;28;96191;-68
2021/10/21 09:02:58;;;;;;;0.95;0.55;;;17.80;56.20;18.10;98466.00;;;;4927605;28;93000;-67
2021/10/21 09:05:30;;;;;;;7.78;0.70;;;17.90;56.20;18.20;98458.00;;;;4936987;28;92891;-69
2021/10/21 09:08:14;;;;;;;2.33;0.80;;;18.00;56.50;18.30;98449.00;;;;4933625;28;92807;-69
2021/10/21 09:10:53;;;;;;;0.10;0.10;;;18.10;56.10;18.30;98442.00;;;;4932739;28;93026;-70
2021/10/21 09:13:30;;;;;;;4.85;0.30;;;18.20;55.50;18.20;98465.00;;;;4932967;28;92937;-69
2021/10/21 09:15:59;;;;;;;0.77;0.25;;;18.10;55.80;18.10;98441.00;;;;4933696;28;92177;-69
2021/10/21 09:18:43;;;;;;;2.83;0.50;;;18.00;56.00;17.90;98481.00;;;;4932727;28;93034;-70
2021/10/21 09:21:35;;;;;;;3.30;0.95;;;17.90;55.70;17.70;98470.00;;;;4919651;28;93018;-69
2021/10/21 09:24:25;;;;;;;2.03;0.57;;;17.70;55.60;17.50;98486.00;;;;4927896;28;93862;-69
2021/10/21 09:27:10;;;;;;;1.92;0.68;;;17.50;56.40;17.40;98480.00;;;;4914737;28;93707;-68
2021/10/21 09:29:52;;;;;;;4.85;0.93;;;17.40;56.60;17.30;98505.00;;;;4932195;28;93192;-69
2021/10/21 09:32:29;;;;;;;1.35;0.45;;;17.20;57.00;17.20;98506.00;;;;4932855;28;93455;-69
2021/10/21 09:35:02;;;;;;;3.92;1.23;;;17.20;57.00;17.20;98499.00;;;;4914163;28;92729;-69
2021/10/21 09:37:30;;;;;;;16.23;2.17;;;17.10;57.20;17.10;98479.00;;;;4932846;28;92880;-69
2021/10/21 09:39:58;;;;;;;5.68;1.45;;;17.00;57.40;17.10;98525.00;;;;4931364;28;108841;-69
2021/10/21 09:42:37;;;;;;;3.72;0.80;;;17.00;57.80;17.00;98498.00;;;;4925431;28;93057;-69
2021/10/21 09:45:22;;;;;;;14.05;1.55;;;16.90;58.60;17.00;98522.00;;;;4900222;28;92878;-69
2021/10/21 09:47:54;;;;;;;11.40;1.38;;;16.90;59.00;17.00;98498.00;;;;4932402;28;93014;-69
2021/10/21 09:50:27;;;;;;;6.35;1.02;;;16.90;59.20;17.00;98509.00;;;;4931430;28;95561;-69
2021/10/21 09:53:18;;;;;;;1.45;0.70;;;16.90;58.60;16.90;98541.00;;;;4931092;28;93873;-69
2021/10/21 09:56:08;;;;;;;9.48;1.70;;;16.90;58.80;16.90;98499.00;;;;4913357;28;93137;-68
2021/10/21 09:58:39;;;;;;;1.30;0.30;;;16.80;58.60;16.80;98519.00;;;;4924093;28;93153;-67
2021/10/21 10:01:13;;;;;;;6.80;1.00;;;16.70;59.00;16.80;98504.00;;;;4931261;28;93584;-69
2021/10/21 10:03:46;;;;;;;2.47;1.13;;;16.80;59.40;16.80;98511.00;;;;4914027;28;92967;-68
2021/10/21 10:08:23;;;;;;;7.35;1.73;;;16.70;59.30;16.80;98496.00;;;;5006129;27;80895;-68
2021/10/21 10:10:52;;;;;;;7.80;0.90;;;16.70;60.10;16.80;98504.00;;;;4988322;28;80892;-70
2021/10/21 10:13:19;;;;;;;2.50;0.75;;;16.60;59.90;16.70;98529.00;;;;4992512;27;93913;-68
2021/10/21 10:15:47;;;;;;;7.72;0.85;;;16.60;59.90;16.70;98487.00;;;;4990426;28;81607;-69
2021/10/21 10:18:23;;;;;;;6.53;1.05;;;16.60;60.50;16.60;98500.00;;;;4980728;27;82029;-68
2021/10/21 10:21:12;;;;;;;3.83;0.70;;;16.50;60.20;16.50;98503.00;;;;4984779;28;80756;-68
2021/10/21 10:23:51;;;;;;;7.82;1.75;;;16.50;60.80;16.30;98529.00;;;;4983423;28;81153;-68
2021/10/21 10:26:56;;;;;;;13.80;1.77;;;16.30;62.50;16.00;98517.00;;;;4990760;28;80876;-68
2021/10/21 10:29:36;;;;;;;18.10;1.45;;;16.00;64.00;15.80;98514.00;;;;4989520;28;81194;-67
2021/10/21 10:32:05;;;;;;;4.10;1.48;;;15.80;67.50;15.40;98559.00;;;;4985965;28;98829;-68
2021/10/21 10:34:34;;;;;;;0.70;0.22;;;15.50;72.40;14.90;98570.00;;;;4992213;28;99266;-68
2021/10/21 10:37:21;;;;;;;2.20;0.60;;;15.20;76.90;14.40;98581.00;;;;4988101;28;81242;-65
2021/10/21 10:39:58;;;;;;;1.90;0.70;;;14.70;83.90;14.00;98577.00;;;;4983063;28;82361;-67
2021/10/21 10:42:32;;;;;;;5.20;0.30;;;14.20;92.20;13.70;98595.00;;;;4986257;27;81022;-67
2021/10/21 10:45:04;;;;;;;11.77;2.10;;;13.90;95.40;13.50;98602.00;;;;4991884;27;80990;-63
2021/10/21 10:47:54;;;;;;;0.37;0.37;;;13.60;98.00;13.30;98594.00;;;;4988045;28;80658;-63
2021/10/21 10:50:22;;;;;;;3.10;0.70;;;13.40;99.90;13.20;98633.00;;;;4986019;28;81490;-66
2021/10/21 10:53:06;;;;;;;5.30;1.07;;;13.30;99.90;13.20;98628.00;;;;4989166;28;84632;-66
2021/10/21 10:56:20;;;;;;;0.67;0.33;;;13.30;98.50;13.40;98609.00;;;;4994847;28;81196;-63
2021/10/21 10:58:46;;;;;;;4.93;0.93;;;13.30;96.30;13.60;98654.00;;;;4962481;28;81211;-64